sensor_id;sensor_type;location;lat;lon;timestamp;pressure;altitude;pressure_sealevel;temperature;humidity
31011;BME280;26395;53.412;19.598;2023-08-12T00:08:44;101012.21;;;16.84;71.77
31011;BME280;26395;53.412;19.598;2023-08-12T00:23:48;101025.95;;;16.51;73.87
31011;BME280;26395;53.412;19.598;2023-08-12T00:38:52;101028.11;;;16.10;73.70
31011;BME280;26395;53.412;19.598;2023-08-12T00:53:58;101017.11;;;16.05;74.70
31011;BME280;26395;53.412;19.598;2023-08-12T01:09:02;101017.42;;;16.36;74.20
31011;BME280;26395;53.412;19.598;2023-08-12T01:24:08;101013.86;;;16.21;73.97
31011;BME280;26395;53.412;19.598;2023-08-12T01:39:12;101017.03;;;16.17;72.85
31011;BME280;26395;53.412;19.598;2023-08-12T01:54:15;101034.22;;;16.37;72.13
31011;BME280;26395;53.412;19.598;2023-08-12T02:09:18;101044.69;;;16.30;72.88
31011;BME280;26395;53.412;19.598;2023-08-12T02:24:22;101040.77;;;16.44;72.48
31011;BME280;26395;53.412;19.598;2023-08-12T02:39:25;101036.83;;;16.56;71.54
31011;BME280;26395;53.412;19.598;2023-08-12T02:54:31;101036.33;;;16.46;72.90
31011;BME280;26395;53.412;19.598;2023-08-12T03:09:35;101034.72;;;16.59;73.91
31011;BME280;26395;53.412;19.598;2023-08-12T03:24:38;101032.39;;;16.56;73.70
31011;BME280;26395;53.412;19.598;2023-08-12T03:39:42;101034.52;;;16.71;73.54
31011;BME280;26395;53.412;19.598;2023-08-12T03:54:45;101028.20;;;16.69;74.06
31011;BME280;26395;53.412;19.598;2023-08-12T04:09:50;101032.89;;;16.82;74.53
31011;BME280;26395;53.412;19.598;2023-08-12T04:24:53;101035.46;;;16.95;75.35
31011;BME280;26395;53.412;19.598;2023-08-12T04:39:57;101032.86;;;17.22;75.72
31011;BME280;26395;53.412;19.598;2023-08-12T04:55:01;101036.89;;;17.55;77.07
31011;BME280;26395;53.412;19.598;2023-08-12T05:10:05;101036.88;;;18.28;76.02
31011;BME280;26395;53.412;19.598;2023-08-12T05:25:08;101032.35;;;18.81;75.63
31011;BME280;26395;53.412;19.598;2023-08-12T05:40:11;101030.81;;;20.91;74.76
31011;BME280;26395;53.412;19.598;2023-08-12T05:55:15;101034.72;;;24.33;69.14
31011;BME280;26395;53.412;19.598;2023-08-12T06:10:18;101029.29;;;25.90;65.60
31011;BME280;26395;53.412;19.598;2023-08-12T06:25:21;101024.11;;;28.81;60.11
31011;BME280;26395;53.412;19.598;2023-08-12T06:40:25;101029.81;;;30.51;56.09
31011;BME280;26395;53.412;19.598;2023-08-12T06:55:29;101014.45;;;31.52;50.68
31011;BME280;26395;53.412;19.598;2023-08-12T07:10:32;101008.19;;;31.49;45.99
31011;BME280;26395;53.412;19.598;2023-08-12T07:25:36;100999.62;;;31.05;42.71
31011;BME280;26395;53.412;19.598;2023-08-12T07:40:40;101000.04;;;31.20;43.44
31011;BME280;26395;53.412;19.598;2023-08-12T07:55:44;100986.49;;;31.49;43.17
31011;BME280;26395;53.412;19.598;2023-08-12T08:10:48;100973.48;;;31.94;41.48
31011;BME280;26395;53.412;19.598;2023-08-12T08:25:51;100959.46;;;32.02;41.74
31011;BME280;26395;53.412;19.598;2023-08-12T08:40:57;100950.94;;;32.56;41.71
31011;BME280;26395;53.412;19.598;2023-08-12T08:56:01;100947.70;;;32.19;41.28
31011;BME280;26395;53.412;19.598;2023-08-12T09:11:05;100939.05;;;32.75;41.31
31011;BME280;26395;53.412;19.598;2023-08-12T09:26:28;100928.27;;;32.60;42.02
31011;BME280;26395;53.412;19.598;2023-08-12T09:41:31;100916.61;;;32.47;42.28
31011;BME280;26395;53.412;19.598;2023-08-12T09:56:39;100899.23;;;32.67;42.80
31011;BME280;26395;53.412;19.598;2023-08-12T10:11:45;100885.83;;;32.75;42.07
31011;BME280;26395;53.412;19.598;2023-08-12T10:26:51;100877.30;;;32.51;42.53
31011;BME280;26395;53.412;19.598;2023-08-12T10:41:56;100865.36;;;33.45;42.37
31011;BME280;26395;53.412;19.598;2023-08-12T11:12:08;100852.58;;;33.36;42.64
31011;BME280;26395;53.412;19.598;2023-08-12T11:27:13;100838.05;;;32.95;42.32
31011;BME280;26395;53.412;19.598;2023-08-12T11:42:17;100822.80;;;32.95;42.95
31011;BME280;26395;53.412;19.598;2023-08-12T11:57:26;100809.67;;;33.65;43.20
31011;BME280;26395;53.412;19.598;2023-08-12T12:12:34;100787.89;;;33.13;43.33
31011;BME280;26395;53.412;19.598;2023-08-12T12:27:40;100782.58;;;33.27;43.60
31011;BME280;26395;53.412;19.598;2023-08-12T12:42:44;100774.30;;;34.31;43.76
31011;BME280;26395;53.412;19.598;2023-08-12T12:57:48;100762.86;;;33.99;43.64
31011;BME280;26395;53.412;19.598;2023-08-12T13:12:52;100755.77;;;34.17;42.91
31011;BME280;26395;53.412;19.598;2023-08-12T13:27:57;100745.67;;;33.70;43.22
31011;BME280;26395;53.412;19.598;2023-08-12T13:43:01;100733.00;;;33.88;43.42
31011;BME280;26395;53.412;19.598;2023-08-12T13:58:05;100725.83;;;33.48;43.60
31011;BME280;26395;53.412;19.598;2023-08-12T14:13:09;100709.17;;;34.24;43.78
31011;BME280;26395;53.412;19.598;2023-08-12T14:28:13;100692.56;;;33.58;44.22
31011;BME280;26395;53.412;19.598;2023-08-12T14:43:17;100672.91;;;33.87;44.83
31011;BME280;26395;53.412;19.598;2023-08-12T14:58:21;100652.98;;;33.56;43.87
31011;BME280;26395;53.412;19.598;2023-08-12T15:13:25;100641.70;;;33.12;43.99
31011;BME280;26395;53.412;19.598;2023-08-12T15:28:29;100633.77;;;33.40;44.60
31011;BME280;26395;53.412;19.598;2023-08-12T15:43:33;100614.46;;;33.18;44.50
31011;BME280;26395;53.412;19.598;2023-08-12T15:58:37;100598.88;;;32.34;44.65
31011;BME280;26395;53.412;19.598;2023-08-12T16:13:42;100588.95;;;32.22;44.68
31011;BME280;26395;53.412;19.598;2023-08-12T16:28:46;100582.11;;;31.80;45.34
31011;BME280;26395;53.412;19.598;2023-08-12T16:43:51;100565.23;;;31.10;46.20
31011;BME280;26395;53.412;19.598;2023-08-12T16:58:55;100559.11;;;30.13;47.91
31011;BME280;26395;53.412;19.598;2023-08-12T17:13:59;100557.52;;;29.44;49.22
31011;BME280;26395;53.412;19.598;2023-08-12T17:29:03;100549.29;;;28.74;50.68
31011;BME280;26395;53.412;19.598;2023-08-12T17:44:07;100546.04;;;28.20;52.01
31011;BME280;26395;53.412;19.598;2023-08-12T17:59:11;100542.81;;;27.81;52.36
31011;BME280;26395;53.412;19.598;2023-08-12T18:14:15;100531.20;;;27.12;53.75
31011;BME280;26395;53.412;19.598;2023-08-12T18:29:19;100530.86;;;26.70;54.80
31011;BME280;26395;53.412;19.598;2023-08-12T18:44:23;100547.27;;;26.26;56.05
31011;BME280;26395;53.412;19.598;2023-08-12T18:59:27;100551.60;;;26.01;56.62
31011;BME280;26395;53.412;19.598;2023-08-12T19:14:33;100552.23;;;25.86;57.48
31011;BME280;26395;53.412;19.598;2023-08-12T19:29:38;100546.41;;;25.79;57.26
31011;BME280;26395;53.412;19.598;2023-08-12T19:44:50;100541.52;;;25.53;58.32
31011;BME280;26395;53.412;19.598;2023-08-12T19:59:54;100542.80;;;25.67;57.81
31011;BME280;26395;53.412;19.598;2023-08-12T20:14:58;100544.23;;;25.56;58.12
31011;BME280;26395;53.412;19.598;2023-08-12T20:30:03;100533.13;;;25.45;58.13
31011;BME280;26395;53.412;19.598;2023-08-12T20:45:10;100523.31;;;25.16;59.27
31011;BME280;26395;53.412;19.598;2023-08-12T21:00:16;100526.65;;;25.16;59.83
31011;BME280;26395;53.412;19.598;2023-08-12T21:15:22;100527.01;;;25.39;59.04
31011;BME280;26395;53.412;19.598;2023-08-12T21:30:26;100518.42;;;24.91;60.36
31011;BME280;26395;53.412;19.598;2023-08-12T21:45:31;100502.61;;;24.81;60.38
31011;BME280;26395;53.412;19.598;2023-08-12T22:00:35;100490.78;;;24.69;61.14
31011;BME280;26395;53.412;19.598;2023-08-12T22:15:39;100492.13;;;24.84;60.26
31011;BME280;26395;53.412;19.598;2023-08-12T22:30:43;100486.04;;;25.05;59.26
31011;BME280;26395;53.412;19.598;2023-08-12T22:45:48;100480.52;;;25.21;58.77
31011;BME280;26395;53.412;19.598;2023-08-12T23:00:52;100468.57;;;25.27;58.43
31011;BME280;26395;53.412;19.598;2023-08-12T23:15:56;100459.73;;;25.25;58.49
31011;BME280;26395;53.412;19.598;2023-08-12T23:30:59;100443.38;;;25.19;58.28
31011;BME280;26395;53.412;19.598;2023-08-12T23:46:03;100438.89;;;24.98;58.86
